createdAt,value
2023-01-18T00:02:27.427Z,7.00
2023-01-18T00:05:29.069Z,7.57
2023-01-18T00:08:31.884Z,6.93
2023-01-18T00:11:33.318Z,6.63
2023-01-18T00:14:34.737Z,6.33
2023-01-18T00:17:47.450Z,6.50
2023-01-18T00:20:48.875Z,5.60
2023-01-18T00:23:50.725Z,5.17
2023-01-18T00:26:52.153Z,6.17
2023-01-18T00:29:53.597Z,6.10
2023-01-18T00:32:59.143Z,6.47
2023-01-18T00:36:03.001Z,6.93
2023-01-18T00:39:04.505Z,7.73
2023-01-18T00:42:24.231Z,10.33
2023-01-18T00:45:25.953Z,8.80
2023-01-18T00:48:27.391Z,6.77
2023-01-18T00:51:28.777Z,6.00
2023-01-18T00:54:30.158Z,7.23
2023-01-18T00:57:31.605Z,7.60
2023-01-18T01:00:33.409Z,6.97
2023-01-18T01:03:54.921Z,9.47
2023-01-18T01:06:56.442Z,6.83
2023-01-18T01:09:58.109Z,5.33
2023-01-18T01:13:17.901Z,5.60
2023-01-18T01:16:38.390Z,8.47
2023-01-18T01:19:58.395Z,5.53
2023-01-18T01:23:34.097Z,6.47
2023-01-18T01:26:35.661Z,6.57
2023-01-18T01:29:37.998Z,6.33
2023-01-18T01:32:39.405Z,7.87
2023-01-18T01:35:40.776Z,6.47
2023-01-18T01:38:42.241Z,6.10
2023-01-18T01:41:43.713Z,8.93
2023-01-18T01:44:52.056Z,9.73
2023-01-18T01:47:54.485Z,10.20
2023-01-18T01:50:55.977Z,11.33
2023-01-18T01:54:01.614Z,9.13
2023-01-18T01:57:12.594Z,9.60
2023-01-18T02:00:24.204Z,8.53
2023-01-18T02:03:25.763Z,10.53
2023-01-18T02:06:34.251Z,9.67
2023-01-18T02:09:35.687Z,9.80
2023-01-18T02:12:40.581Z,9.93
2023-01-18T02:16:03.050Z,9.80
2023-01-18T02:19:22.359Z,8.80
2023-01-18T02:23:09.517Z,9.23
2023-01-18T02:26:41.561Z,9.57
2023-01-18T02:30:24.951Z,8.77
2023-01-18T02:33:42.842Z,9.50
2023-01-18T02:37:16.611Z,8.23
2023-01-18T02:40:32.136Z,8.53
2023-01-18T02:43:53.648Z,9.37
2023-01-18T02:46:55.255Z,9.33
2023-01-18T02:49:57.667Z,7.80
2023-01-18T02:52:59.380Z,9.57
2023-01-18T02:56:03.547Z,8.30
2023-01-18T02:59:35.135Z,11.30
2023-01-18T03:02:39.408Z,8.73
2023-01-18T03:05:42.987Z,10.73
2023-01-18T03:08:50.351Z,11.00
2023-01-18T03:12:02.138Z,9.50
2023-01-18T03:15:18.754Z,12.63
2023-01-18T03:18:35.494Z,12.93
2023-01-18T03:21:43.262Z,11.43
2023-01-18T03:24:45.884Z,11.07
2023-01-18T03:28:09.711Z,11.07
2023-01-18T03:31:35.541Z,9.40
2023-01-18T03:35:08.831Z,8.20
2023-01-18T03:38:10.617Z,9.53
2023-01-18T03:41:15.518Z,8.50
2023-01-18T03:44:25.571Z,8.87
2023-01-18T03:47:27.130Z,11.47
2023-01-18T03:50:39.100Z,9.70
2023-01-18T03:53:54.343Z,8.40
2023-01-18T03:57:15.253Z,6.67
2023-01-18T04:00:18.058Z,8.10
2023-01-18T04:03:19.422Z,7.90
2023-01-18T04:06:22.821Z,8.73
2023-01-18T04:09:25.377Z,11.03
2023-01-18T04:12:27.344Z,8.47
2023-01-18T04:15:28.754Z,8.27
2023-01-18T04:18:30.121Z,9.97
2023-01-18T04:21:31.505Z,6.60
2023-01-18T04:24:32.922Z,7.37
2023-01-18T04:27:34.437Z,8.60
2023-01-18T04:30:35.831Z,9.83
2023-01-18T04:33:37.279Z,10.00
2023-01-18T04:36:38.776Z,8.97
2023-01-18T04:39:40.176Z,9.70
2023-01-18T04:42:41.595Z,10.73
2023-01-18T04:45:43.087Z,9.40
2023-01-18T04:48:44.548Z,11.53
2023-01-18T04:51:46.834Z,9.67
2023-01-18T04:54:48.226Z,8.47
2023-01-18T04:57:56.504Z,7.70
2023-01-18T05:01:01.682Z,8.70
2023-01-18T05:04:03.491Z,8.50
2023-01-18T05:07:04.941Z,9.67
2023-01-18T05:10:06.664Z,7.37
2023-01-18T05:13:08.150Z,9.30
2023-01-18T05:16:15.042Z,7.67
2023-01-18T05:19:16.415Z,7.67
2023-01-18T05:22:17.807Z,6.30
2023-01-18T05:25:19.218Z,7.00
2023-01-18T05:28:22.073Z,7.80
2023-01-18T05:31:23.845Z,7.60
2023-01-18T05:34:27.134Z,6.70
2023-01-18T05:37:28.507Z,6.43
2023-01-18T05:40:29.936Z,8.13
2023-01-18T05:43:31.774Z,8.97
2023-01-18T05:46:33.167Z,9.37
2023-01-18T05:49:34.547Z,8.20
2023-01-18T05:52:35.949Z,8.47
2023-01-18T05:55:37.491Z,7.90
2023-01-18T05:58:38.937Z,8.90
2023-01-18T06:01:40.459Z,8.77
2023-01-18T06:04:44.192Z,11.10
2023-01-18T06:07:45.623Z,7.60
2023-01-18T06:10:57.850Z,9.50
2023-01-18T06:13:59.525Z,10.00
2023-01-18T06:17:01.624Z,9.57
2023-01-18T06:20:04.718Z,11.03
2023-01-18T06:23:06.109Z,10.03
2023-01-18T06:26:07.702Z,8.63
2023-01-18T06:29:09.188Z,8.43
2023-01-18T06:32:10.597Z,8.77
2023-01-18T06:35:11.982Z,9.23
2023-01-18T06:38:13.978Z,11.63
2023-01-18T06:41:15.897Z,11.13
2023-01-18T06:44:17.390Z,11.57
2023-01-18T06:47:19.885Z,12.67
2023-01-18T06:50:22.448Z,12.43
2023-01-18T06:53:24.422Z,10.20
2023-01-18T06:56:26.765Z,9.73
2023-01-18T06:59:28.464Z,10.27
2023-01-18T07:02:29.845Z,12.63
2023-01-18T07:05:31.257Z,14.40
2023-01-18T07:08:32.925Z,12.23
2023-01-18T07:11:35.728Z,11.37
2023-01-18T07:14:37.285Z,10.77
2023-01-18T07:17:38.679Z,11.70
2023-01-18T07:20:40.073Z,12.00
2023-01-18T07:23:42.298Z,10.90
2023-01-18T07:26:44.086Z,13.70
2023-01-18T07:29:45.489Z,9.17
2023-01-18T07:32:50.919Z,11.37
2023-01-18T07:35:53.879Z,13.70
2023-01-18T07:38:55.579Z,8.43
2023-01-18T07:41:57.052Z,12.77
2023-01-18T07:44:58.439Z,13.33
2023-01-18T07:48:00.620Z,12.47
2023-01-18T07:51:04.627Z,9.27
2023-01-18T07:54:07.162Z,10.07
2023-01-18T07:57:08.639Z,11.43
2023-01-18T08:00:12.046Z,12.40
2023-01-18T08:03:16.855Z,11.83
2023-01-18T08:06:24.906Z,11.60
2023-01-18T08:09:26.523Z,14.50
2023-01-18T08:12:28.039Z,11.17
2023-01-18T08:15:31.288Z,13.97
2023-01-18T08:18:33.329Z,11.10
2023-01-18T08:21:34.757Z,9.67
2023-01-18T08:24:36.739Z,10.57
2023-01-18T08:27:38.790Z,12.20
2023-01-18T08:30:46.089Z,9.27
2023-01-18T08:33:48.730Z,9.60
2023-01-18T08:36:51.035Z,8.27
2023-01-18T08:39:52.447Z,10.53
2023-01-18T08:42:59.626Z,11.23
2023-01-18T08:46:01.334Z,10.00
2023-01-18T08:49:05.669Z,7.90
2023-01-18T08:52:07.398Z,10.00
2023-01-18T08:55:09.228Z,10.20
2023-01-18T08:58:11.913Z,10.37
2023-01-18T09:01:13.675Z,11.57
2023-01-18T09:04:15.103Z,6.67
2023-01-18T09:07:23.030Z,7.87
2023-01-18T09:10:24.602Z,6.90
2023-01-18T09:13:26.125Z,9.40
2023-01-18T09:16:28.298Z,7.70
2023-01-18T09:19:30.068Z,8.23
2023-01-18T09:22:31.456Z,6.90
2023-01-18T09:25:33.198Z,7.20
2023-01-18T09:28:35.493Z,7.50
2023-01-18T09:31:37.181Z,6.67
2023-01-18T09:34:38.971Z,8.43
2023-01-18T09:37:40.429Z,5.60
2023-01-18T09:40:44.615Z,5.43
2023-01-18T09:43:52.206Z,7.17
2023-01-18T09:46:58.557Z,5.23
2023-01-18T09:50:06.613Z,4.60
2023-01-18T09:53:41.376Z,5.17
2023-01-18T09:56:51.926Z,6.47
2023-01-18T09:59:59.374Z,5.27
2023-01-18T10:03:08.842Z,10.30
2023-01-18T10:06:18.486Z,6.53
2023-01-18T10:09:27.165Z,14.30
2023-01-18T10:12:40.922Z,8.10
2023-01-18T10:15:42.524Z,10.90
2023-01-18T10:18:48.801Z,7.57
2023-01-18T10:21:57.811Z,8.13
2023-01-18T10:25:14.819Z,7.60
2023-01-18T10:28:50.381Z,5.33
2023-01-18T10:32:00.471Z,5.70
2023-01-18T10:35:14.199Z,5.53
2023-01-18T10:38:20.864Z,9.57
2023-01-18T10:41:28.958Z,5.90
2023-01-18T10:44:31.529Z,6.40
2023-01-18T10:47:33.906Z,4.53
2023-01-18T10:50:43.909Z,4.63
2023-01-18T10:53:45.314Z,5.67
2023-01-18T10:56:46.712Z,5.63
2023-01-18T10:59:51.416Z,6.80
2023-01-18T11:02:55.540Z,6.57
2023-01-18T11:06:06.898Z,4.03
2023-01-18T11:09:34.208Z,5.27
2023-01-18T11:12:47.723Z,7.60
2023-01-18T11:16:02.428Z,6.90
2023-01-18T11:19:15.872Z,4.20
2023-01-18T11:22:17.441Z,7.33
2023-01-18T11:25:18.976Z,5.83
2023-01-18T11:28:22.659Z,8.17
2023-01-18T11:31:26.266Z,4.40
2023-01-18T11:34:31.423Z,9.60
2023-01-18T11:37:38.267Z,6.43
2023-01-18T11:40:39.665Z,7.53
2023-01-18T11:43:53.122Z,5.43
2023-01-18T11:46:57.883Z,6.57
2023-01-18T11:50:21.378Z,4.73
2023-01-18T11:53:26.593Z,4.50
2023-01-18T11:56:45.136Z,6.37
2023-01-18T11:59:48.658Z,4.73
2023-01-18T12:02:57.809Z,6.00
2023-01-18T12:06:26.933Z,7.27
2023-01-18T12:09:52.431Z,6.20
2023-01-18T12:13:27.823Z,6.53
2023-01-18T12:17:01.533Z,9.13
2023-01-18T12:20:31.204Z,10.70
2023-01-18T12:23:56.960Z,5.63
2023-01-18T12:27:04.031Z,7.30
2023-01-18T12:30:32.823Z,8.40
2023-01-18T12:33:44.195Z,7.97
2023-01-18T12:37:02.634Z,8.20
2023-01-18T12:40:34.516Z,8.77
2023-01-18T12:44:05.404Z,9.57
2023-01-18T12:47:35.006Z,6.70
2023-01-18T12:50:39.263Z,6.37
2023-01-18T12:54:13.299Z,4.33
2023-01-18T12:57:16.946Z,7.70
2023-01-18T13:00:28.256Z,7.00
2023-01-18T13:03:35.313Z,7.87
2023-01-18T13:06:39.496Z,6.47
2023-01-18T13:09:46.437Z,7.07
2023-01-18T13:12:50.813Z,5.67
2023-01-18T13:16:13.582Z,8.80
2023-01-18T13:19:24.800Z,10.03
2023-01-18T13:22:35.633Z,8.57
2023-01-18T13:25:51.248Z,7.60
2023-01-18T13:29:16.750Z,7.00
2023-01-18T13:32:24.647Z,8.03
2023-01-18T13:35:33.446Z,5.27
2023-01-18T13:38:41.512Z,9.60
2023-01-18T13:42:02.248Z,7.87
2023-01-18T13:45:17.156Z,7.10
2023-01-18T13:49:01.576Z,7.87
2023-01-18T13:52:32.560Z,7.77
2023-01-18T13:55:33.961Z,9.13
2023-01-18T13:58:40.164Z,12.37
2023-01-18T14:01:44.049Z,7.23
2023-01-18T14:04:46.116Z,9.50
2023-01-18T14:07:51.788Z,6.90
2023-01-18T14:11:04.317Z,8.53
2023-01-18T14:14:11.770Z,7.77
2023-01-18T14:17:16.389Z,6.27
2023-01-18T14:20:37.968Z,8.80
2023-01-18T14:24:09.493Z,8.10
2023-01-18T14:27:21.866Z,5.67
2023-01-18T14:30:29.539Z,5.27
2023-01-18T14:33:38.037Z,5.30
2023-01-18T14:36:39.431Z,10.30
2023-01-18T14:39:41.039Z,6.73
2023-01-18T14:42:55.787Z,5.83
2023-01-18T14:46:01.333Z,4.13
2023-01-18T14:49:02.801Z,6.87
2023-01-18T14:52:07.739Z,6.00
2023-01-18T14:55:27.064Z,6.43
2023-01-18T14:58:28.808Z,5.33
2023-01-18T15:01:39.105Z,7.07
2023-01-18T15:04:45.343Z,5.00
2023-01-18T15:07:55.761Z,8.07
2023-01-18T15:10:58.198Z,8.73
2023-01-18T15:14:00.082Z,5.77
2023-01-18T15:17:06.112Z,7.47
2023-01-18T15:20:14.470Z,7.50
2023-01-18T15:23:16.191Z,8.53
2023-01-18T15:26:17.573Z,5.83
2023-01-18T15:29:26.431Z,8.43
2023-01-18T15:32:37.397Z,6.50
2023-01-18T15:35:38.877Z,9.13
2023-01-18T15:38:40.307Z,5.57
2023-01-18T15:41:43.601Z,5.00
2023-01-18T15:44:51.512Z,7.50
2023-01-18T15:48:08.049Z,9.73
2023-01-18T15:51:10.883Z,7.37
2023-01-18T15:54:22.865Z,8.47
2023-01-18T15:57:24.356Z,5.80
2023-01-18T16:00:30.689Z,7.17
2023-01-18T16:03:41.166Z,8.87
2023-01-18T16:06:45.385Z,8.27
2023-01-18T16:09:46.832Z,9.27
2023-01-18T16:12:48.380Z,7.77
2023-01-18T16:16:04.959Z,12.03
2023-01-18T16:19:34.769Z,9.87
2023-01-18T16:22:37.111Z,8.60
2023-01-18T16:25:39.107Z,9.57
2023-01-18T16:28:40.875Z,9.37
2023-01-18T16:31:43.953Z,6.87
2023-01-18T16:34:45.561Z,10.23
2023-01-18T16:37:47.995Z,9.10
2023-01-18T16:40:50.849Z,9.33
2023-01-18T16:43:52.243Z,8.67
2023-01-18T16:46:53.862Z,9.50
2023-01-18T16:49:55.297Z,6.20
2023-01-18T16:52:56.711Z,16.50
2023-01-18T16:55:58.093Z,7.03
2023-01-18T16:59:00.682Z,9.07
2023-01-18T17:02:02.273Z,9.57
2023-01-18T17:05:04.022Z,12.77
2023-01-18T17:08:05.399Z,13.50
2023-01-18T17:11:06.955Z,8.70
2023-01-18T17:14:08.622Z,10.13
2023-01-18T17:17:10.851Z,14.47
2023-01-18T17:20:17.994Z,10.47
2023-01-18T17:23:19.429Z,9.40
2023-01-18T17:26:20.892Z,9.27
2023-01-18T17:29:22.521Z,7.77
2023-01-18T17:32:24.021Z,6.80
2023-01-18T17:35:27.692Z,9.27
2023-01-18T17:41:33.660Z,10.23
2023-01-18T17:44:37.413Z,8.53
2023-01-18T17:47:39.208Z,9.10
2023-01-18T17:50:41.582Z,11.90
2023-01-18T17:53:43.425Z,8.20
2023-01-18T17:56:45.214Z,13.00
2023-01-18T17:59:46.639Z,15.73
2023-01-18T18:02:50.938Z,12.13
2023-01-18T18:05:57.603Z,13.00
2023-01-18T18:09:00.485Z,12.47
2023-01-18T18:12:01.964Z,9.77
2023-01-18T18:15:05.024Z,15.53
2023-01-18T18:18:12.300Z,14.13
2023-01-18T18:21:26.154Z,16.07
2023-01-18T18:24:27.559Z,15.13
2023-01-18T18:27:44.455Z,18.87
2023-01-18T18:30:51.293Z,20.20
2023-01-18T18:33:52.791Z,18.80
2023-01-18T18:36:54.271Z,21.23
2023-01-18T18:39:55.897Z,23.20
2023-01-18T18:43:02.363Z,18.03
2023-01-18T18:46:04.293Z,22.97
2023-01-18T18:49:06.833Z,20.70
2023-01-18T18:52:08.259Z,19.67
2023-01-18T18:55:11.184Z,24.13
2023-01-18T18:58:12.752Z,22.33
2023-01-18T19:01:22.559Z,25.30
2023-01-18T19:04:24.805Z,26.50
2023-01-18T19:07:26.796Z,27.97
2023-01-18T19:10:30.216Z,28.30
2023-01-18T19:13:31.637Z,29.73
2023-01-18T19:16:33.181Z,26.93
2023-01-18T19:19:34.703Z,27.73
2023-01-18T19:22:37.911Z,23.33
2023-01-18T19:25:40.485Z,20.77
2023-01-18T19:28:42.085Z,21.53
2023-01-18T19:31:43.614Z,19.23
2023-01-18T19:34:45.007Z,18.07
2023-01-18T19:37:47.361Z,20.63
2023-01-18T19:40:48.881Z,18.97
2023-01-18T19:43:50.561Z,16.00
2023-01-18T19:46:53.888Z,19.13
2023-01-18T19:49:57.187Z,18.70
2023-01-18T19:52:59.603Z,16.57
2023-01-18T19:56:07.173Z,15.40
2023-01-18T19:59:11.211Z,13.03
2023-01-18T20:02:12.822Z,14.00
2023-01-18T20:05:14.347Z,11.60
2023-01-18T20:08:15.812Z,14.97
2023-01-18T20:11:17.340Z,13.40
2023-01-18T20:14:19.548Z,14.60
2023-01-18T20:17:20.979Z,12.63
2023-01-18T20:20:31.850Z,15.60
2023-01-18T20:23:34.061Z,10.93
2023-01-18T20:26:37.721Z,12.47
2023-01-18T20:29:39.660Z,15.80
2023-01-18T20:32:41.119Z,13.37
2023-01-18T20:35:42.921Z,13.17
2023-01-18T20:38:44.440Z,11.37
2023-01-18T20:41:48.610Z,13.17
2023-01-18T20:44:53.471Z,13.57
2023-01-18T20:47:54.977Z,14.47
2023-01-18T20:51:00.564Z,13.53
2023-01-18T20:54:02.287Z,11.57
2023-01-18T20:57:06.947Z,11.23
2023-01-18T21:00:09.177Z,11.50
2023-01-18T21:03:13.831Z,12.70
2023-01-18T21:06:16.012Z,10.93
2023-01-18T21:09:17.514Z,11.80
2023-01-18T21:12:18.989Z,12.43
2023-01-18T21:15:20.420Z,18.03
2023-01-18T21:18:21.916Z,16.90
2023-01-18T21:21:23.857Z,13.20
2023-01-18T21:24:25.311Z,12.80
2023-01-18T21:27:27.176Z,10.83
2023-01-18T21:30:28.711Z,12.87
2023-01-18T21:33:30.189Z,11.33
2023-01-18T21:36:31.743Z,13.00
2023-01-18T21:39:33.236Z,14.37
2023-01-18T21:42:53.327Z,16.30
2023-01-18T21:45:58.648Z,14.27
2023-01-18T21:49:05.140Z,12.40
2023-01-18T21:52:26.419Z,13.53
2023-01-18T21:55:27.978Z,12.83
2023-01-18T21:58:48.212Z,10.73
2023-01-18T22:01:49.758Z,10.10
2023-01-18T22:05:00.327Z,11.20
2023-01-18T22:08:02.110Z,12.90
2023-01-18T22:11:03.788Z,12.60
2023-01-18T22:14:06.188Z,11.97
2023-01-18T22:17:08.431Z,14.53
2023-01-18T22:20:11.218Z,14.13
2023-01-18T22:23:12.597Z,13.37
2023-01-18T22:26:14.224Z,11.80
2023-01-18T22:29:15.693Z,11.80
2023-01-18T22:32:17.200Z,14.07
2023-01-18T22:35:18.770Z,12.83
2023-01-18T22:38:20.168Z,10.30
2023-01-18T22:41:24.981Z,13.07
2023-01-18T22:44:26.457Z,15.07
2023-01-18T22:47:27.919Z,10.73
2023-01-18T22:50:29.359Z,11.43
2023-01-18T22:53:31.901Z,14.20
2023-01-18T22:56:35.114Z,14.53
2023-01-18T22:59:36.527Z,12.07
2023-01-18T23:02:38.229Z,15.63
2023-01-18T23:05:39.663Z,13.77
2023-01-18T23:08:44.050Z,13.27
2023-01-18T23:11:47.455Z,11.50
2023-01-18T23:15:07.491Z,11.70
2023-01-18T23:18:08.887Z,13.33
2023-01-18T23:21:10.296Z,11.20
2023-01-18T23:24:12.002Z,12.90
2023-01-18T23:27:13.400Z,12.20
2023-01-18T23:30:15.185Z,14.97
2023-01-18T23:33:16.575Z,15.60
2023-01-18T23:36:18.108Z,14.07
2023-01-18T23:39:38.193Z,13.00
2023-01-18T23:42:58.238Z,14.20
2023-01-18T23:46:17.894Z,12.83
2023-01-18T23:49:37.994Z,12.93
2023-01-18T23:52:57.747Z,12.43
2023-01-18T23:55:59.527Z,12.97
2023-01-18T23:59:01.038Z,14.97
